sensor_id;sensor_type;location;lat;lon;timestamp;P1;durP1;ratioP1;P2;durP2;ratioP2
28373;SDS011;15616;40.148;-102.718;2022-08-01T00:01:56;12.38;;;11.07;;
28373;SDS011;15616;40.148;-102.718;2022-08-01T00:04:22;12.65;;;10.88;;
28373;SDS011;15616;40.148;-102.718;2022-08-01T00:06:48;12.10;;;10.52;;
28373;SDS011;15616;40.148;-102.718;2022-08-01T00:09:14;13.45;;;10.90;;
28373;SDS011;15616;40.148;-102.718;2022-08-01T00:11:40;14.30;;;10.70;;
28373;SDS011;15616;40.148;-102.718;2022-08-01T00:14:07;13.55;;;10.43;;
28373;SDS011;15616;40.148;-102.718;2022-08-01T00:16:34;15.88;;;11.82;;
28373;SDS011;15616;40.148;-102.718;2022-08-01T00:19:01;14.65;;;11.05;;
28373;SDS011;15616;40.148;-102.718;2022-08-01T00:21:27;14.32;;;11.40;;
28373;SDS011;15616;40.148;-102.718;2022-08-01T00:23:53;13.45;;;11.00;;
28373;SDS011;15616;40.148;-102.718;2022-08-01T00:26:18;13.25;;;10.27;;
28373;SDS011;15616;40.148;-102.718;2022-08-01T00:28:45;15.57;;;11.13;;
28373;SDS011;15616;40.148;-102.718;2022-08-01T00:31:11;11.57;;;10.23;;
28373;SDS011;15616;40.148;-102.718;2022-08-01T00:33:37;11.90;;;10.50;;
28373;SDS011;15616;40.148;-102.718;2022-08-01T00:36:02;13.70;;;11.35;;
28373;SDS011;15616;40.148;-102.718;2022-08-01T00:38:29;16.58;;;11.68;;
28373;SDS011;15616;40.148;-102.718;2022-08-01T00:40:55;13.55;;;10.98;;
28373;SDS011;15616;40.148;-102.718;2022-08-01T00:43:20;12.30;;;10.98;;
28373;SDS011;15616;40.148;-102.718;2022-08-01T00:45:46;13.50;;;10.88;;
28373;SDS011;15616;40.148;-102.718;2022-08-01T00:48:12;14.00;;;10.75;;
28373;SDS011;15616;40.148;-102.718;2022-08-01T00:50:38;12.98;;;10.57;;
28373;SDS011;15616;40.148;-102.718;2022-08-01T00:53:04;12.43;;;10.10;;
28373;SDS011;15616;40.148;-102.718;2022-08-01T00:55:31;13.98;;;10.25;;
28373;SDS011;15616;40.148;-102.718;2022-08-01T00:57:57;13.18;;;10.77;;
28373;SDS011;15616;40.148;-102.718;2022-08-01T01:00:24;13.35;;;11.27;;
28373;SDS011;15616;40.148;-102.718;2022-08-01T01:02:50;13.10;;;10.60;;
28373;SDS011;15616;40.148;-102.718;2022-08-01T01:05:16;12.85;;;10.63;;
28373;SDS011;15616;40.148;-102.718;2022-08-01T01:10:35;13.15;;;10.77;;
28373;SDS011;15616;40.148;-102.718;2022-08-01T01:13:20;14.27;;;11.40;;
28373;SDS011;15616;40.148;-102.718;2022-08-01T01:15:59;12.60;;;10.88;;
28373;SDS011;15616;40.148;-102.718;2022-08-01T01:18:34;12.57;;;10.48;;
28373;SDS011;15616;40.148;-102.718;2022-08-01T01:23:44;11.93;;;10.48;;
28373;SDS011;15616;40.148;-102.718;2022-08-01T01:26:31;12.90;;;10.75;;
28373;SDS011;15616;40.148;-102.718;2022-08-01T01:31:43;12.00;;;10.57;;
28373;SDS011;15616;40.148;-102.718;2022-08-01T01:34:15;13.77;;;11.77;;
28373;SDS011;15616;40.148;-102.718;2022-08-01T01:36:44;14.13;;;11.20;;
28373;SDS011;15616;40.148;-102.718;2022-08-01T01:39:13;12.52;;;10.38;;
28373;SDS011;15616;40.148;-102.718;2022-08-01T01:41:40;13.23;;;11.48;;
28373;SDS011;15616;40.148;-102.718;2022-08-01T01:44:09;13.43;;;10.98;;
28373;SDS011;15616;40.148;-102.718;2022-08-01T01:46:36;15.75;;;11.55;;
28373;SDS011;15616;40.148;-102.718;2022-08-01T01:49:03;13.50;;;10.73;;
28373;SDS011;15616;40.148;-102.718;2022-08-01T01:51:35;13.88;;;11.45;;
28373;SDS011;15616;40.148;-102.718;2022-08-01T01:54:02;13.00;;;11.40;;
28373;SDS011;15616;40.148;-102.718;2022-08-01T01:56:29;13.32;;;10.80;;
28373;SDS011;15616;40.148;-102.718;2022-08-01T01:58:57;12.43;;;10.60;;
28373;SDS011;15616;40.148;-102.718;2022-08-01T02:01:26;14.23;;;11.23;;
28373;SDS011;15616;40.148;-102.718;2022-08-01T02:03:55;12.70;;;10.63;;
28373;SDS011;15616;40.148;-102.718;2022-08-01T02:06:22;13.93;;;11.60;;
28373;SDS011;15616;40.148;-102.718;2022-08-01T02:08:52;13.38;;;10.55;;
28373;SDS011;15616;40.148;-102.718;2022-08-01T02:11:20;14.07;;;11.25;;
28373;SDS011;15616;40.148;-102.718;2022-08-01T02:13:55;12.75;;;10.65;;
28373;SDS011;15616;40.148;-102.718;2022-08-01T02:16:27;12.02;;;10.73;;
28373;SDS011;15616;40.148;-102.718;2022-08-01T02:18:56;13.95;;;11.18;;
28373;SDS011;15616;40.148;-102.718;2022-08-01T02:22:06;13.77;;;11.05;;
28373;SDS011;15616;40.148;-102.718;2022-08-01T02:24:34;14.25;;;11.10;;
28373;SDS011;15616;40.148;-102.718;2022-08-01T02:27:16;13.82;;;10.82;;
28373;SDS011;15616;40.148;-102.718;2022-08-01T02:32:27;12.88;;;10.98;;
28373;SDS011;15616;40.148;-102.718;2022-08-01T02:34:57;12.35;;;10.90;;
28373;SDS011;15616;40.148;-102.718;2022-08-01T02:37:28;13.63;;;10.57;;
28373;SDS011;15616;40.148;-102.718;2022-08-01T02:39:58;15.05;;;11.35;;
28373;SDS011;15616;40.148;-102.718;2022-08-01T02:42:26;12.75;;;10.80;;
28373;SDS011;15616;40.148;-102.718;2022-08-01T02:44:55;12.80;;;10.43;;
28373;SDS011;15616;40.148;-102.718;2022-08-01T02:47:22;13.65;;;11.13;;
28373;SDS011;15616;40.148;-102.718;2022-08-01T02:49:50;14.10;;;10.90;;
28373;SDS011;15616;40.148;-102.718;2022-08-01T02:52:18;12.32;;;10.85;;
28373;SDS011;15616;40.148;-102.718;2022-08-01T02:54:49;14.95;;;11.32;;
28373;SDS011;15616;40.148;-102.718;2022-08-01T02:57:18;13.68;;;11.43;;
28373;SDS011;15616;40.148;-102.718;2022-08-01T02:59:45;13.07;;;10.98;;
28373;SDS011;15616;40.148;-102.718;2022-08-01T03:02:13;12.95;;;10.77;;
28373;SDS011;15616;40.148;-102.718;2022-08-01T03:04:40;13.23;;;10.73;;
28373;SDS011;15616;40.148;-102.718;2022-08-01T03:07:08;13.07;;;10.95;;
28373;SDS011;15616;40.148;-102.718;2022-08-01T03:09:39;14.18;;;10.82;;
28373;SDS011;15616;40.148;-102.718;2022-08-01T03:12:13;13.27;;;11.45;;
28373;SDS011;15616;40.148;-102.718;2022-08-01T03:14:42;13.15;;;11.18;;
28373;SDS011;15616;40.148;-102.718;2022-08-01T03:17:09;14.82;;;11.27;;
28373;SDS011;15616;40.148;-102.718;2022-08-01T03:19:36;11.85;;;10.57;;
28373;SDS011;15616;40.148;-102.718;2022-08-01T03:22:06;12.30;;;10.70;;
28373;SDS011;15616;40.148;-102.718;2022-08-01T03:24:34;12.18;;;10.80;;
28373;SDS011;15616;40.148;-102.718;2022-08-01T03:27:03;13.43;;;10.73;;
28373;SDS011;15616;40.148;-102.718;2022-08-01T03:29:30;12.02;;;10.55;;
28373;SDS011;15616;40.148;-102.718;2022-08-01T03:31:58;12.30;;;10.40;;
28373;SDS011;15616;40.148;-102.718;2022-08-01T03:34:25;13.57;;;10.85;;
28373;SDS011;15616;40.148;-102.718;2022-08-01T03:39:34;13.30;;;11.10;;
28373;SDS011;15616;40.148;-102.718;2022-08-01T03:42:12;14.95;;;10.75;;
28373;SDS011;15616;40.148;-102.718;2022-08-01T03:44:41;15.30;;;11.23;;
28373;SDS011;15616;40.148;-102.718;2022-08-01T03:47:18;12.23;;;10.52;;
28373;SDS011;15616;40.148;-102.718;2022-08-01T03:49:47;11.57;;;10.18;;
28373;SDS011;15616;40.148;-102.718;2022-08-01T03:52:15;13.23;;;10.85;;
28373;SDS011;15616;40.148;-102.718;2022-08-01T03:54:49;11.77;;;10.38;;
28373;SDS011;15616;40.148;-102.718;2022-08-01T03:57:18;13.75;;;10.75;;
28373;SDS011;15616;40.148;-102.718;2022-08-01T03:59:45;12.55;;;11.02;;
28373;SDS011;15616;40.148;-102.718;2022-08-01T04:02:12;12.75;;;10.75;;
28373;SDS011;15616;40.148;-102.718;2022-08-01T04:04:40;13.13;;;10.32;;
28373;SDS011;15616;40.148;-102.718;2022-08-01T04:07:20;11.38;;;10.18;;
28373;SDS011;15616;40.148;-102.718;2022-08-01T04:09:48;15.02;;;10.30;;
28373;SDS011;15616;40.148;-102.718;2022-08-01T04:12:14;11.30;;;10.10;;
28373;SDS011;15616;40.148;-102.718;2022-08-01T04:14:40;12.70;;;10.32;;
28373;SDS011;15616;40.148;-102.718;2022-08-01T04:17:06;12.27;;;10.07;;
28373;SDS011;15616;40.148;-102.718;2022-08-01T04:19:35;12.40;;;10.25;;
28373;SDS011;15616;40.148;-102.718;2022-08-01T04:22:01;11.52;;;10.32;;
28373;SDS011;15616;40.148;-102.718;2022-08-01T04:24:27;12.57;;;9.65;;
28373;SDS011;15616;40.148;-102.718;2022-08-01T04:26:56;12.15;;;10.32;;
28373;SDS011;15616;40.148;-102.718;2022-08-01T04:29:25;13.15;;;10.07;;
28373;SDS011;15616;40.148;-102.718;2022-08-01T04:31:52;11.93;;;10.43;;
28373;SDS011;15616;40.148;-102.718;2022-08-01T04:34:22;11.88;;;10.43;;
28373;SDS011;15616;40.148;-102.718;2022-08-01T04:36:51;12.10;;;9.90;;
28373;SDS011;15616;40.148;-102.718;2022-08-01T04:39:19;11.18;;;9.75;;
28373;SDS011;15616;40.148;-102.718;2022-08-01T04:41:48;12.15;;;9.88;;
28373;SDS011;15616;40.148;-102.718;2022-08-01T04:44:16;12.68;;;10.43;;
28373;SDS011;15616;40.148;-102.718;2022-08-01T04:46:42;14.85;;;10.00;;
28373;SDS011;15616;40.148;-102.718;2022-08-01T04:49:09;54.45;;;10.88;;
28373;SDS011;15616;40.148;-102.718;2022-08-01T04:51:36;18.17;;;9.70;;
28373;SDS011;15616;40.148;-102.718;2022-08-01T04:54:16;15.68;;;9.90;;
28373;SDS011;15616;40.148;-102.718;2022-08-01T04:56:41;16.48;;;9.48;;
28373;SDS011;15616;40.148;-102.718;2022-08-01T04:59:07;15.50;;;9.20;;
28373;SDS011;15616;40.148;-102.718;2022-08-01T05:01:52;12.00;;;9.35;;
28373;SDS011;15616;40.148;-102.718;2022-08-01T05:04:18;11.05;;;8.90;;
28373;SDS011;15616;40.148;-102.718;2022-08-01T05:06:44;13.00;;;9.70;;
28373;SDS011;15616;40.148;-102.718;2022-08-01T05:09:10;11.88;;;9.15;;
28373;SDS011;15616;40.148;-102.718;2022-08-01T05:11:36;11.77;;;8.52;;
28373;SDS011;15616;40.148;-102.718;2022-08-01T05:14:02;11.23;;;8.93;;
28373;SDS011;15616;40.148;-102.718;2022-08-01T05:16:27;11.15;;;9.07;;
28373;SDS011;15616;40.148;-102.718;2022-08-01T05:18:53;10.50;;;8.82;;
28373;SDS011;15616;40.148;-102.718;2022-08-01T05:21:19;10.95;;;8.70;;
28373;SDS011;15616;40.148;-102.718;2022-08-01T05:23:45;10.45;;;8.95;;
28373;SDS011;15616;40.148;-102.718;2022-08-01T05:26:11;9.27;;;8.00;;
28373;SDS011;15616;40.148;-102.718;2022-08-01T05:28:38;11.95;;;8.40;;
28373;SDS011;15616;40.148;-102.718;2022-08-01T05:31:04;9.38;;;8.38;;
28373;SDS011;15616;40.148;-102.718;2022-08-01T05:33:30;10.38;;;8.20;;
28373;SDS011;15616;40.148;-102.718;2022-08-01T05:35:56;11.48;;;8.48;;
28373;SDS011;15616;40.148;-102.718;2022-08-01T05:38:22;8.98;;;7.93;;
28373;SDS011;15616;40.148;-102.718;2022-08-01T05:40:48;10.27;;;8.55;;
28373;SDS011;15616;40.148;-102.718;2022-08-01T05:43:14;11.32;;;8.35;;
28373;SDS011;15616;40.148;-102.718;2022-08-01T05:45:40;10.82;;;7.85;;
28373;SDS011;15616;40.148;-102.718;2022-08-01T05:48:06;10.68;;;8.40;;
28373;SDS011;15616;40.148;-102.718;2022-08-01T05:50:32;9.88;;;7.53;;
28373;SDS011;15616;40.148;-102.718;2022-08-01T05:52:59;10.30;;;8.00;;
28373;SDS011;15616;40.148;-102.718;2022-08-01T05:55:25;9.90;;;8.20;;
28373;SDS011;15616;40.148;-102.718;2022-08-01T05:57:50;10.88;;;8.10;;
28373;SDS011;15616;40.148;-102.718;2022-08-01T06:00:16;10.52;;;7.78;;
28373;SDS011;15616;40.148;-102.718;2022-08-01T06:02:42;9.93;;;7.57;;
28373;SDS011;15616;40.148;-102.718;2022-08-01T06:05:09;10.60;;;7.50;;
28373;SDS011;15616;40.148;-102.718;2022-08-01T06:07:35;10.48;;;8.05;;
28373;SDS011;15616;40.148;-102.718;2022-08-01T06:10:01;10.75;;;7.40;;
28373;SDS011;15616;40.148;-102.718;2022-08-01T06:12:27;11.65;;;7.50;;
28373;SDS011;15616;40.148;-102.718;2022-08-01T06:14:53;8.93;;;7.35;;
28373;SDS011;15616;40.148;-102.718;2022-08-01T06:17:19;10.93;;;7.10;;
28373;SDS011;15616;40.148;-102.718;2022-08-01T06:19:45;10.25;;;7.10;;
28373;SDS011;15616;40.148;-102.718;2022-08-01T06:22:11;9.45;;;7.13;;
28373;SDS011;15616;40.148;-102.718;2022-08-01T06:24:37;8.38;;;6.72;;
28373;SDS011;15616;40.148;-102.718;2022-08-01T06:27:03;13.82;;;6.65;;
28373;SDS011;15616;40.148;-102.718;2022-08-01T06:29:32;9.45;;;7.00;;
28373;SDS011;15616;40.148;-102.718;2022-08-01T06:31:58;10.43;;;6.85;;
28373;SDS011;15616;40.148;-102.718;2022-08-01T06:34:24;11.55;;;6.65;;
28373;SDS011;15616;40.148;-102.718;2022-08-01T06:36:50;9.52;;;6.80;;
28373;SDS011;15616;40.148;-102.718;2022-08-01T06:39:16;14.88;;;6.95;;
28373;SDS011;15616;40.148;-102.718;2022-08-01T06:41:42;12.60;;;5.90;;
28373;SDS011;15616;40.148;-102.718;2022-08-01T06:44:11;12.73;;;6.13;;
28373;SDS011;15616;40.148;-102.718;2022-08-01T06:46:38;11.60;;;6.30;;
28373;SDS011;15616;40.148;-102.718;2022-08-01T06:49:04;8.88;;;6.07;;
28373;SDS011;15616;40.148;-102.718;2022-08-01T06:51:30;18.98;;;5.97;;
28373;SDS011;15616;40.148;-102.718;2022-08-01T06:53:56;13.10;;;6.07;;
28373;SDS011;15616;40.148;-102.718;2022-08-01T06:56:22;9.85;;;6.07;;
28373;SDS011;15616;40.148;-102.718;2022-08-01T06:58:49;23.95;;;7.00;;
28373;SDS011;15616;40.148;-102.718;2022-08-01T07:01:15;25.35;;;6.53;;
28373;SDS011;15616;40.148;-102.718;2022-08-01T07:03:41;11.38;;;6.20;;
28373;SDS011;15616;40.148;-102.718;2022-08-01T07:06:07;33.17;;;7.53;;
28373;SDS011;15616;40.148;-102.718;2022-08-01T07:08:37;12.98;;;6.43;;
28373;SDS011;15616;40.148;-102.718;2022-08-01T07:11:03;13.98;;;5.70;;
28373;SDS011;15616;40.148;-102.718;2022-08-01T07:13:28;11.77;;;5.88;;
28373;SDS011;15616;40.148;-102.718;2022-08-01T07:15:56;9.45;;;5.68;;
28373;SDS011;15616;40.148;-102.718;2022-08-01T07:18:22;10.80;;;5.95;;
28373;SDS011;15616;40.148;-102.718;2022-08-01T07:20:48;10.38;;;6.18;;
28373;SDS011;15616;40.148;-102.718;2022-08-01T07:23:15;10.82;;;5.88;;
28373;SDS011;15616;40.148;-102.718;2022-08-01T07:25:41;18.33;;;5.95;;
28373;SDS011;15616;40.148;-102.718;2022-08-01T07:28:07;7.90;;;5.50;;
28373;SDS011;15616;40.148;-102.718;2022-08-01T07:30:33;12.98;;;5.97;;
28373;SDS011;15616;40.148;-102.718;2022-08-01T07:33:00;8.88;;;5.75;;
28373;SDS011;15616;40.148;-102.718;2022-08-01T07:35:27;11.60;;;6.03;;
28373;SDS011;15616;40.148;-102.718;2022-08-01T07:37:52;15.57;;;6.10;;
28373;SDS011;15616;40.148;-102.718;2022-08-01T07:40:19;12.13;;;6.05;;
28373;SDS011;15616;40.148;-102.718;2022-08-01T07:42:45;15.35;;;6.50;;
28373;SDS011;15616;40.148;-102.718;2022-08-01T07:45:12;15.35;;;6.65;;
28373;SDS011;15616;40.148;-102.718;2022-08-01T07:47:39;14.85;;;6.65;;
28373;SDS011;15616;40.148;-102.718;2022-08-01T07:50:05;13.35;;;6.57;;
28373;SDS011;15616;40.148;-102.718;2022-08-01T07:52:32;14.10;;;6.78;;
28373;SDS011;15616;40.148;-102.718;2022-08-01T07:54:58;12.05;;;6.22;;
28373;SDS011;15616;40.148;-102.718;2022-08-01T07:57:24;11.32;;;6.22;;
28373;SDS011;15616;40.148;-102.718;2022-08-01T07:59:50;11.02;;;6.05;;
28373;SDS011;15616;40.148;-102.718;2022-08-01T08:02:16;15.70;;;7.03;;
28373;SDS011;15616;40.148;-102.718;2022-08-01T08:04:42;12.75;;;6.78;;
28373;SDS011;15616;40.148;-102.718;2022-08-01T08:07:08;17.63;;;6.60;;
28373;SDS011;15616;40.148;-102.718;2022-08-01T08:09:34;19.52;;;6.95;;
28373;SDS011;15616;40.148;-102.718;2022-08-01T08:12:00;22.20;;;7.10;;
28373;SDS011;15616;40.148;-102.718;2022-08-01T08:14:26;9.77;;;6.50;;
28373;SDS011;15616;40.148;-102.718;2022-08-01T08:16:52;16.15;;;6.53;;
28373;SDS011;15616;40.148;-102.718;2022-08-01T08:19:18;16.58;;;6.68;;
28373;SDS011;15616;40.148;-102.718;2022-08-01T08:21:44;30.77;;;8.13;;
28373;SDS011;15616;40.148;-102.718;2022-08-01T08:24:10;17.38;;;7.38;;
28373;SDS011;15616;40.148;-102.718;2022-08-01T08:26:45;29.92;;;7.75;;
28373;SDS011;15616;40.148;-102.718;2022-08-01T08:29:12;34.22;;;8.25;;
28373;SDS011;15616;40.148;-102.718;2022-08-01T08:31:38;20.25;;;7.68;;
28373;SDS011;15616;40.148;-102.718;2022-08-01T08:34:03;20.25;;;7.47;;
28373;SDS011;15616;40.148;-102.718;2022-08-01T08:36:29;11.63;;;7.38;;
28373;SDS011;15616;40.148;-102.718;2022-08-01T08:38:55;27.25;;;7.47;;
28373;SDS011;15616;40.148;-102.718;2022-08-01T08:41:21;14.77;;;8.00;;
28373;SDS011;15616;40.148;-102.718;2022-08-01T08:43:48;24.00;;;7.45;;
28373;SDS011;15616;40.148;-102.718;2022-08-01T08:46:14;20.45;;;8.00;;
28373;SDS011;15616;40.148;-102.718;2022-08-01T08:48:42;16.48;;;7.38;;
28373;SDS011;15616;40.148;-102.718;2022-08-01T08:51:08;16.20;;;7.57;;
28373;SDS011;15616;40.148;-102.718;2022-08-01T08:53:37;15.90;;;7.57;;
28373;SDS011;15616;40.148;-102.718;2022-08-01T08:56:08;13.23;;;7.20;;
28373;SDS011;15616;40.148;-102.718;2022-08-01T08:58:36;17.80;;;7.10;;
28373;SDS011;15616;40.148;-102.718;2022-08-01T09:01:06;15.20;;;6.80;;
28373;SDS011;15616;40.148;-102.718;2022-08-01T09:03:34;13.95;;;6.72;;
28373;SDS011;15616;40.148;-102.718;2022-08-01T09:06:00;20.55;;;6.93;;
28373;SDS011;15616;40.148;-102.718;2022-08-01T09:08:26;16.77;;;6.65;;
28373;SDS011;15616;40.148;-102.718;2022-08-01T09:10:52;11.65;;;7.10;;
28373;SDS011;15616;40.148;-102.718;2022-08-01T09:13:18;12.90;;;7.00;;
28373;SDS011;15616;40.148;-102.718;2022-08-01T09:15:45;16.45;;;7.15;;
28373;SDS011;15616;40.148;-102.718;2022-08-01T09:18:39;16.80;;;7.13;;
28373;SDS011;15616;40.148;-102.718;2022-08-01T09:24:12;16.17;;;6.25;;
28373;SDS011;15616;40.148;-102.718;2022-08-01T09:26:34;15.95;;;6.93;;
28373;SDS011;15616;40.148;-102.718;2022-08-01T09:29:05;25.38;;;8.15;;
28373;SDS011;15616;40.148;-102.718;2022-08-01T09:31:39;17.55;;;7.32;;
28373;SDS011;15616;40.148;-102.718;2022-08-01T09:34:09;14.70;;;7.55;;
28373;SDS011;15616;40.148;-102.718;2022-08-01T09:36:46;16.85;;;7.68;;
28373;SDS011;15616;40.148;-102.718;2022-08-01T09:39:22;11.70;;;8.02;;
28373;SDS011;15616;40.148;-102.718;2022-08-01T09:41:50;13.90;;;7.50;;
28373;SDS011;15616;40.148;-102.718;2022-08-01T09:44:16;12.80;;;7.85;;
28373;SDS011;15616;40.148;-102.718;2022-08-01T09:46:50;16.52;;;7.63;;
28373;SDS011;15616;40.148;-102.718;2022-08-01T09:49:26;13.10;;;8.13;;
28373;SDS011;15616;40.148;-102.718;2022-08-01T09:51:57;11.52;;;7.82;;
28373;SDS011;15616;40.148;-102.718;2022-08-01T09:54:28;15.93;;;7.90;;
28373;SDS011;15616;40.148;-102.718;2022-08-01T09:56:57;15.52;;;7.88;;
28373;SDS011;15616;40.148;-102.718;2022-08-01T09:59:38;11.50;;;7.80;;
28373;SDS011;15616;40.148;-102.718;2022-08-01T10:02:10;18.70;;;8.55;;
28373;SDS011;15616;40.148;-102.718;2022-08-01T10:04:50;18.70;;;7.70;;
28373;SDS011;15616;40.148;-102.718;2022-08-01T10:07:17;15.95;;;8.27;;
28373;SDS011;15616;40.148;-102.718;2022-08-01T10:09:44;14.20;;;7.57;;
28373;SDS011;15616;40.148;-102.718;2022-08-01T10:12:17;11.60;;;7.53;;
28373;SDS011;15616;40.148;-102.718;2022-08-01T10:14:46;14.77;;;7.70;;
28373;SDS011;15616;40.148;-102.718;2022-08-01T10:17:18;13.85;;;8.05;;
28373;SDS011;15616;40.148;-102.718;2022-08-01T10:19:45;12.98;;;8.00;;
28373;SDS011;15616;40.148;-102.718;2022-08-01T10:22:12;10.32;;;7.05;;
28373;SDS011;15616;40.148;-102.718;2022-08-01T10:24:43;18.75;;;8.38;;
28373;SDS011;15616;40.148;-102.718;2022-08-01T10:27:13;11.82;;;7.80;;
28373;SDS011;15616;40.148;-102.718;2022-08-01T10:32:07;16.08;;;7.88;;
28373;SDS011;15616;40.148;-102.718;2022-08-01T10:34:35;13.00;;;7.90;;
28373;SDS011;15616;40.148;-102.718;2022-08-01T10:37:04;14.20;;;8.55;;
28373;SDS011;15616;40.148;-102.718;2022-08-01T10:39:31;12.07;;;7.68;;
28373;SDS011;15616;40.148;-102.718;2022-08-01T10:41:58;19.85;;;9.20;;
28373;SDS011;15616;40.148;-102.718;2022-08-01T10:44:26;14.70;;;7.97;;
28373;SDS011;15616;40.148;-102.718;2022-08-01T10:46:59;15.60;;;7.93;;
28373;SDS011;15616;40.148;-102.718;2022-08-01T10:49:30;17.15;;;8.00;;
28373;SDS011;15616;40.148;-102.718;2022-08-01T10:52:00;10.27;;;7.85;;
28373;SDS011;15616;40.148;-102.718;2022-08-01T10:54:26;11.18;;;7.38;;
28373;SDS011;15616;40.148;-102.718;2022-08-01T10:56:52;16.13;;;8.43;;
28373;SDS011;15616;40.148;-102.718;2022-08-01T10:59:25;17.90;;;8.13;;
28373;SDS011;15616;40.148;-102.718;2022-08-01T11:01:58;19.17;;;8.18;;
28373;SDS011;15616;40.148;-102.718;2022-08-01T11:07:16;16.83;;;7.68;;
28373;SDS011;15616;40.148;-102.718;2022-08-01T11:09:46;15.38;;;7.50;;
28373;SDS011;15616;40.148;-102.718;2022-08-01T11:12:15;13.52;;;8.32;;
28373;SDS011;15616;40.148;-102.718;2022-08-01T11:17:39;15.77;;;7.50;;
28373;SDS011;15616;40.148;-102.718;2022-08-01T11:20:16;13.55;;;7.22;;
28373;SDS011;15616;40.148;-102.718;2022-08-01T11:28:35;16.38;;;7.60;;
28373;SDS011;15616;40.148;-102.718;2022-08-01T11:31:40;17.65;;;7.57;;
28373;SDS011;15616;40.148;-102.718;2022-08-01T11:33:47;16.73;;;7.70;;
28373;SDS011;15616;40.148;-102.718;2022-08-01T11:38:43;12.27;;;7.40;;
28373;SDS011;15616;40.148;-102.718;2022-08-01T11:49:24;16.00;;;8.38;;
28373;SDS011;15616;40.148;-102.718;2022-08-01T11:52:10;14.18;;;8.23;;
28373;SDS011;15616;40.148;-102.718;2022-08-01T11:54:45;14.40;;;7.43;;
28373;SDS011;15616;40.148;-102.718;2022-08-01T11:57:13;15.10;;;7.55;;
28373;SDS011;15616;40.148;-102.718;2022-08-01T11:59:47;15.43;;;8.50;;
28373;SDS011;15616;40.148;-102.718;2022-08-01T12:02:18;11.68;;;7.82;;
28373;SDS011;15616;40.148;-102.718;2022-08-01T12:04:50;16.40;;;8.32;;
28373;SDS011;15616;40.148;-102.718;2022-08-01T12:07:23;12.43;;;7.35;;
28373;SDS011;15616;40.148;-102.718;2022-08-01T12:10:06;16.75;;;7.75;;
28373;SDS011;15616;40.148;-102.718;2022-08-01T12:12:34;16.15;;;8.02;;
28373;SDS011;15616;40.148;-102.718;2022-08-01T12:15:05;13.00;;;7.70;;
28373;SDS011;15616;40.148;-102.718;2022-08-01T12:17:37;14.90;;;8.30;;
28373;SDS011;15616;40.148;-102.718;2022-08-01T12:20:12;13.25;;;8.13;;
28373;SDS011;15616;40.148;-102.718;2022-08-01T12:22:45;13.60;;;8.50;;
28373;SDS011;15616;40.148;-102.718;2022-08-01T12:25:12;18.85;;;7.80;;
28373;SDS011;15616;40.148;-102.718;2022-08-01T12:27:40;15.18;;;8.13;;
28373;SDS011;15616;40.148;-102.718;2022-08-01T12:30:08;10.57;;;7.45;;
28373;SDS011;15616;40.148;-102.718;2022-08-01T12:32:37;12.60;;;7.55;;
28373;SDS011;15616;40.148;-102.718;2022-08-01T12:35:17;16.77;;;7.50;;
28373;SDS011;15616;40.148;-102.718;2022-08-01T12:37:54;12.73;;;7.80;;
28373;SDS011;15616;40.148;-102.718;2022-08-01T12:40:29;13.75;;;8.63;;
28373;SDS011;15616;40.148;-102.718;2022-08-01T12:43:00;12.65;;;8.85;;
28373;SDS011;15616;40.148;-102.718;2022-08-01T12:48:02;13.48;;;7.78;;
28373;SDS011;15616;40.148;-102.718;2022-08-01T12:50:34;14.73;;;7.95;;
28373;SDS011;15616;40.148;-102.718;2022-08-01T12:53:03;14.43;;;7.72;;
28373;SDS011;15616;40.148;-102.718;2022-08-01T12:55:30;16.27;;;7.82;;
28373;SDS011;15616;40.148;-102.718;2022-08-01T12:58:05;16.35;;;8.27;;
28373;SDS011;15616;40.148;-102.718;2022-08-01T13:00:37;13.68;;;8.07;;
28373;SDS011;15616;40.148;-102.718;2022-08-01T13:03:06;13.48;;;7.88;;
28373;SDS011;15616;40.148;-102.718;2022-08-01T13:05:43;18.83;;;8.10;;
28373;SDS011;15616;40.148;-102.718;2022-08-01T13:08:12;12.95;;;8.20;;
28373;SDS011;15616;40.148;-102.718;2022-08-01T13:10:43;12.43;;;7.78;;
28373;SDS011;15616;40.148;-102.718;2022-08-01T13:13:10;15.52;;;7.47;;
28373;SDS011;15616;40.148;-102.718;2022-08-01T13:15:37;20.02;;;7.65;;
28373;SDS011;15616;40.148;-102.718;2022-08-01T13:18:24;13.20;;;7.68;;
28373;SDS011;15616;40.148;-102.718;2022-08-01T13:23:41;19.02;;;7.70;;
28373;SDS011;15616;40.148;-102.718;2022-08-01T13:26:37;20.48;;;8.10;;
28373;SDS011;15616;40.148;-102.718;2022-08-01T13:29:13;17.23;;;7.78;;
28373;SDS011;15616;40.148;-102.718;2022-08-01T13:31:41;20.40;;;7.65;;
28373;SDS011;15616;40.148;-102.718;2022-08-01T13:34:08;13.27;;;7.97;;
28373;SDS011;15616;40.148;-102.718;2022-08-01T13:36:35;18.83;;;8.65;;
28373;SDS011;15616;40.148;-102.718;2022-08-01T13:39:02;18.75;;;8.20;;
28373;SDS011;15616;40.148;-102.718;2022-08-01T13:41:47;16.45;;;7.75;;
28373;SDS011;15616;40.148;-102.718;2022-08-01T13:44:14;17.95;;;7.65;;
28373;SDS011;15616;40.148;-102.718;2022-08-01T13:46:41;17.92;;;8.02;;
28373;SDS011;15616;40.148;-102.718;2022-08-01T13:49:08;26.63;;;8.85;;
28373;SDS011;15616;40.148;-102.718;2022-08-01T13:51:35;16.35;;;8.43;;
28373;SDS011;15616;40.148;-102.718;2022-08-01T13:54:02;15.90;;;8.20;;
28373;SDS011;15616;40.148;-102.718;2022-08-01T13:56:29;14.45;;;8.35;;
28373;SDS011;15616;40.148;-102.718;2022-08-01T13:58:55;17.45;;;8.45;;
28373;SDS011;15616;40.148;-102.718;2022-08-01T14:01:22;15.27;;;8.07;;
28373;SDS011;15616;40.148;-102.718;2022-08-01T14:03:49;18.60;;;8.13;;
28373;SDS011;15616;40.148;-102.718;2022-08-01T14:06:16;20.13;;;7.80;;
28373;SDS011;15616;40.148;-102.718;2022-08-01T14:08:43;17.13;;;8.32;;
28373;SDS011;15616;40.148;-102.718;2022-08-01T14:11:10;15.45;;;7.97;;
28373;SDS011;15616;40.148;-102.718;2022-08-01T14:13:36;11.38;;;7.55;;
28373;SDS011;15616;40.148;-102.718;2022-08-01T14:16:04;12.18;;;8.18;;
28373;SDS011;15616;40.148;-102.718;2022-08-01T14:18:31;13.25;;;7.32;;
28373;SDS011;15616;40.148;-102.718;2022-08-01T14:20:57;12.65;;;7.63;;
28373;SDS011;15616;40.148;-102.718;2022-08-01T14:23:23;13.35;;;7.95;;
28373;SDS011;15616;40.148;-102.718;2022-08-01T14:25:49;13.77;;;8.07;;
28373;SDS011;15616;40.148;-102.718;2022-08-01T14:28:15;11.20;;;7.47;;
28373;SDS011;15616;40.148;-102.718;2022-08-01T14:30:42;17.33;;;8.65;;
28373;SDS011;15616;40.148;-102.718;2022-08-01T14:33:08;18.90;;;8.52;;
28373;SDS011;15616;40.148;-102.718;2022-08-01T14:35:35;13.57;;;9.30;;
28373;SDS011;15616;40.148;-102.718;2022-08-01T14:38:01;11.35;;;8.48;;
28373;SDS011;15616;40.148;-102.718;2022-08-01T14:40:28;13.38;;;8.82;;
28373;SDS011;15616;40.148;-102.718;2022-08-01T14:42:53;17.23;;;8.95;;
28373;SDS011;15616;40.148;-102.718;2022-08-01T14:45:19;14.27;;;8.93;;
28373;SDS011;15616;40.148;-102.718;2022-08-01T14:47:45;18.25;;;9.23;;
28373;SDS011;15616;40.148;-102.718;2022-08-01T14:50:12;14.10;;;7.93;;